createdAt,value
2022-09-22T00:05:44.029Z,2.70
2022-09-22T00:20:44.752Z,3.40
2022-09-22T00:35:46.659Z,2.70
2022-09-22T00:50:47.391Z,3.20
2022-09-22T01:05:49.064Z,5.10
2022-09-22T01:20:49.934Z,4.60
2022-09-22T01:35:53.142Z,3.20
2022-09-22T01:50:54.022Z,3.00
2022-09-22T02:05:54.497Z,3.00
2022-09-22T02:20:55.373Z,3.40
2022-09-22T02:35:55.383Z,3.10
2022-09-22T02:50:56.925Z,2.90
2022-09-22T03:05:58.747Z,2.90
2022-09-22T03:20:58.894Z,3.00
2022-09-22T03:36:00.803Z,3.80
2022-09-22T03:51:01.672Z,3.40
2022-09-22T04:06:03.541Z,6.10
2022-09-22T04:21:03.158Z,3.00
2022-09-22T04:36:05.364Z,7.00
2022-09-22T04:51:06.679Z,4.80
2022-09-22T05:06:08.177Z,3.10
2022-09-22T05:21:08.317Z,5.70
2022-09-22T05:36:09.797Z,8.60
2022-09-22T05:51:10.341Z,6.20
2022-09-22T06:06:11.707Z,5.50
2022-09-22T06:21:13.412Z,7.50
2022-09-22T06:36:15.251Z,4.50
2022-09-22T06:51:16.444Z,4.30
2022-09-22T07:06:20.235Z,2.70
2022-09-22T07:21:21.125Z,3.20
2022-09-22T07:36:21.806Z,2.70
2022-09-22T07:51:23.408Z,2.50
2022-09-22T08:06:25.389Z,1.80
2022-09-22T08:21:26.459Z,2.70
2022-09-22T08:36:29.978Z,2.40
2022-09-22T08:51:31.334Z,2.00
2022-09-22T09:06:36.121Z,1.80
2022-09-22T09:21:37.336Z,2.80
2022-09-22T09:36:39.775Z,1.10
2022-09-22T09:51:42.317Z,0.80
2022-09-22T10:06:43.234Z,0.70
2022-09-22T10:21:43.554Z,0.80
2022-09-22T10:36:44.204Z,2.70
2022-09-22T10:51:45.602Z,0.80
2022-09-22T11:06:46.891Z,0.70
2022-09-22T11:21:48.272Z,0.60
2022-09-22T11:36:52.019Z,0.60
2022-09-22T11:51:52.870Z,0.70
2022-09-22T12:06:54.659Z,0.70
2022-09-22T12:21:54.698Z,0.70
2022-09-22T12:37:10.418Z,1.50
2022-09-22T12:52:11.671Z,0.60
2022-09-22T13:07:13.278Z,2.20
2022-09-22T13:22:15.028Z,0.60
2022-09-22T13:37:16.247Z,5.00
2022-09-22T13:52:17.492Z,0.60
2022-09-22T14:07:20.565Z,0.60
2022-09-22T14:22:20.920Z,1.00
2022-09-22T14:37:21.582Z,0.50
2022-09-22T14:52:21.765Z,0.70
2022-09-22T15:07:22.834Z,2.60
2022-09-22T15:22:22.956Z,3.90
2022-09-22T15:37:23.206Z,2.50
2022-09-22T15:52:23.506Z,1.00
2022-09-22T16:07:25.399Z,1.10
2022-09-22T16:22:25.497Z,2.10
2022-09-22T16:37:27.529Z,2.30
2022-09-22T16:52:29.766Z,2.30
2022-09-22T17:07:31.107Z,1.90
2022-09-22T17:22:31.308Z,6.40
2022-09-22T17:37:33.184Z,6.60
2022-09-22T17:52:36.036Z,11.40
2022-09-22T18:07:37.740Z,8.30
2022-09-22T18:22:37.320Z,21.90
2022-09-22T18:37:38.405Z,25.50
2022-09-22T18:52:39.780Z,19.60
2022-09-22T19:07:43.011Z,31.30
2022-09-22T19:22:44.311Z,23.60
2022-09-22T19:37:46.162Z,28.50
2022-09-22T19:52:45.881Z,23.70
2022-09-22T20:07:47.472Z,27.00
2022-09-22T20:22:48.149Z,24.20
2022-09-22T20:37:50.516Z,28.50
2022-09-22T20:52:53.412Z,38.80
2022-09-22T21:07:53.513Z,47.90
2022-09-22T21:22:55.201Z,40.50
2022-09-22T21:37:55.162Z,45.70
2022-09-22T21:52:57.034Z,55.10
2022-09-22T22:07:59.389Z,45.00
2022-09-22T22:23:00.381Z,49.70
2022-09-22T22:38:01.303Z,44.30
2022-09-22T22:53:01.915Z,32.60
2022-09-22T23:08:03.778Z,33.90
2022-09-22T23:23:04.446Z,30.70
2022-09-22T23:38:09.042Z,21.30
2022-09-22T23:53:09.592Z,20.60
